Tuesday, November 21, 2017, 10:46 AM EST
Back to Local

KFIG, Clearfield-lawrence Airport

Location: Clearfield, PA, United States Lat: 41.05
Local Time: 10:46 AM EST (15:46 GMT) Lon: -78.417
Time Zone: US/Eastern Elev: 1515 ft

Show me the last for .
Show Decoded

2017-11-21 09:54 METAR KFIG 211454Z AUTO VRB03KT 10SM CLR 04/M03 A2997 RMK AO2 SLP162 I3000
                 T00391028 58003 =
2017-11-21 08:54 METAR KFIG 211354Z AUTO 00000KT 10SM CLR M01/M03 A2998 RMK AO2 SLP169 T10061028
                 =
2017-11-21 07:54 METAR KFIG 211254Z AUTO 00000KT 10SM CLR M04/M06 A2999 RMK AO2 SLP171 I1000
                 T10391056 =
2017-11-21 06:54 METAR KFIG 211154Z AUTO 00000KT 10SM CLR M04/M06 A2998 RMK AO2 SLP169 I1000
                 I6000 T10441061 10000 21044 56003 =
2017-11-21 05:54 METAR KFIG 211054Z AUTO 00000KT 10SM CLR M04/M06 A2998 RMK AO2 SLP168 T10391056
                 =
2017-11-21 04:54 METAR KFIG 210954Z AUTO 01003KT 10SM CLR M04/M05 A2998 RMK AO2 SLP166 T10441050
                 =
2017-11-21 03:54 METAR KFIG 210854Z AUTO 34005KT 10SM CLR M03/M06 A2999 RMK AO2 SLP169 T10331056
                 58010 =
2017-11-21 02:54 METAR KFIG 210754Z AUTO 35004KT 10SM CLR M03/M05 A3000 RMK AO2 SLP173 T10331050
                 =
2017-11-21 01:54 METAR KFIG 210654Z AUTO 00000KT 10SM CLR M03/M04 A3001 RMK AO2 SLP177 T10281044
                 =
2017-11-21 00:54 METAR KFIG 210554Z AUTO 21005KT 10SM CLR M01/M04 A3002 RMK AO2 SLP179 T10061044
                 10022 21011 58010 =
2017-11-20 23:54 METAR KFIG 210454Z AUTO 21005KT 10SM CLR M01/M04 A3003 RMK AO2 SLP184 T10061044
                 400561017 =
2017-11-20 22:54 METAR KFIG 210354Z AUTO 20004KT 10SM CLR M01/M04 A3004 RMK AO2 SLP190 T10111039
                 =
2017-11-20 21:54 METAR KFIG 210254Z AUTO 22005KT 10SM CLR 00/M04 A3005 RMK AO2 SLP192 T00001039
                 58003 =
2017-11-20 20:54 METAR KFIG 210154Z AUTO 21005KT 10SM CLR 01/M04 A3006 RMK AO2 SLP195 T00061044 =
2017-11-20 19:54 METAR KFIG 210054Z AUTO 21005KT 10SM CLR 01/M04 A3006 RMK AO2 SLP196 T00111039 =
2017-11-20 18:54 METAR KFIG 202354Z AUTO 21006KT 10SM CLR 02/M04 A3006 RMK AO2 SLP194 T00221044
                 10056 20022 53004 =
2017-11-20 17:54 METAR KFIG 202254Z AUTO 21006KT 10SM CLR 03/M04 A3006 RMK AO2 SLP193 T00281044 =
2017-11-20 16:54 METAR KFIG 202154Z AUTO 20007KT 10SM CLR 03/M04 A3005 RMK AO2 SLP188 T00331044 =
2017-11-20 15:54 METAR KFIG 202054Z AUTO 21009G15KT 10SM CLR 05/M05 A3005 RMK AO2 SLP188
                 T00501050 53003 =
2017-11-20 14:54 METAR KFIG 201954Z AUTO 23008KT 10SM CLR 05/M05 A3003 RMK AO2 SLP184 T00501050 =
2017-11-20 13:54 METAR KFIG 201854Z AUTO 24012G17KT 10SM CLR 05/M04 A3004 RMK AO2 SLP184
                 T00501044 =
2017-11-20 12:54 METAR KFIG 201754Z AUTO 24012G18KT 10SM CLR 04/M04 A3004 RMK AO2 SLP185
                 T00391044 10039 21017 58015 =
2017-11-20 11:54 METAR KFIG 201654Z AUTO 24011G18KT 10SM FEW070 02/M04 A3005 RMK AO2 SLP191
                 T00221044 =
2017-11-20 11:11 METAR KFIG 201611Z AUTO 23012G18KT 10SM SCT026 01/M05 A3007 RMK AO2 T00111050 =
2017-11-20 10:54 METAR KFIG 201554Z AUTO 25009G18KT 10SM BKN025 01/M04 A3008 RMK AO2 SLP201
                 T00111044 =

Support USWX by starting your Amazon purchase here.